createdAt,value
2018-03-20T00:02:27.477Z,80.82
2018-03-20T00:04:56.304Z,80.40
2018-03-20T00:07:25.021Z,80.58
2018-03-20T00:09:53.765Z,80.81
2018-03-20T00:12:22.567Z,80.37
2018-03-20T00:14:51.465Z,80.91
2018-03-20T00:17:20.233Z,80.95
2018-03-20T00:19:49.035Z,81.11
2018-03-20T00:22:17.857Z,81.54
2018-03-20T00:24:46.677Z,81.58
2018-03-20T00:27:15.425Z,81.47
2018-03-20T00:29:44.148Z,81.52
2018-03-20T00:32:13.053Z,81.48
2018-03-20T00:34:42.369Z,81.74
2018-03-20T00:37:11.089Z,82.09
2018-03-20T00:39:39.695Z,82.50
2018-03-20T00:42:08.638Z,81.98
2018-03-20T00:44:37.555Z,82.71
2018-03-20T00:47:06.278Z,82.43
2018-03-20T00:49:35.173Z,82.63
2018-03-20T00:52:03.928Z,82.47
2018-03-20T00:54:33.785Z,83.52
2018-03-20T00:57:02.571Z,83.91
2018-03-20T00:59:31.410Z,84.06
2018-03-20T01:02:00.114Z,83.95
2018-03-20T01:04:28.822Z,83.40
2018-03-20T01:06:58.866Z,82.11
2018-03-20T01:09:27.687Z,82.03
2018-03-20T01:11:56.307Z,82.15
2018-03-20T01:14:25.229Z,81.26
2018-03-20T01:16:53.866Z,81.63
2018-03-20T01:19:22.676Z,81.51
2018-03-20T01:21:51.436Z,81.81
2018-03-20T01:24:20.215Z,82.42
2018-03-20T01:26:49.019Z,82.88
2018-03-20T01:29:17.863Z,82.94
2018-03-20T01:31:46.683Z,82.50
2018-03-20T01:34:15.408Z,82.85
2018-03-20T01:36:44.126Z,82.57
2018-03-20T01:39:12.848Z,82.08
2018-03-20T01:41:41.471Z,82.02
2018-03-20T01:44:10.239Z,83.06
2018-03-20T01:46:39.716Z,82.86
2018-03-20T01:49:08.619Z,82.87
2018-03-20T01:51:37.413Z,82.58
2018-03-20T01:54:06.192Z,82.44
2018-03-20T01:56:35.105Z,81.72
2018-03-20T01:59:03.947Z,81.94
2018-03-20T02:01:32.704Z,81.42
2018-03-20T02:04:01.447Z,80.50
2018-03-20T02:06:30.094Z,80.36
2018-03-20T02:08:58.945Z,80.83
2018-03-20T02:11:27.739Z,80.25
2018-03-20T02:13:56.574Z,80.18
2018-03-20T02:16:25.384Z,79.76
2018-03-20T02:18:54.108Z,80.32
2018-03-20T02:21:22.828Z,80.60
2018-03-20T02:23:51.650Z,80.58
2018-03-20T02:26:20.475Z,80.34
2018-03-20T02:28:49.091Z,80.23
2018-03-20T02:31:17.799Z,80.05
2018-03-20T02:33:46.362Z,79.37
2018-03-20T02:36:14.947Z,79.26
2018-03-20T02:38:43.481Z,79.50
2018-03-20T02:41:12.203Z,79.32
2018-03-20T02:43:40.923Z,79.53
2018-03-20T02:46:10.448Z,80.07
2018-03-20T02:48:39.073Z,80.10
2018-03-20T02:51:08.492Z,80.02
2018-03-20T02:53:37.079Z,79.80
2018-03-20T02:56:05.756Z,78.50
2018-03-20T02:58:34.356Z,78.11
2018-03-20T03:01:02.982Z,77.74
2018-03-20T03:03:31.601Z,78.04
2018-03-20T03:06:00.210Z,77.52
2018-03-20T03:08:28.799Z,77.45
2018-03-20T03:10:57.470Z,76.47
2018-03-20T03:13:26.093Z,76.70
2018-03-20T03:15:54.671Z,76.27
2018-03-20T03:18:23.442Z,76.48
2018-03-20T03:20:52.091Z,76.74
2018-03-20T03:23:20.677Z,76.96
2018-03-20T03:25:49.215Z,76.45
2018-03-20T03:28:18.024Z,76.45
2018-03-20T03:30:46.660Z,76.88
2018-03-20T03:33:15.315Z,77.06
2018-03-20T03:35:43.935Z,77.20
2018-03-20T03:38:12.611Z,77.29
2018-03-20T03:40:41.206Z,77.74
2018-03-20T03:43:09.752Z,77.19
2018-03-20T03:45:38.342Z,77.15
2018-03-20T03:48:06.992Z,77.30
2018-03-20T03:50:35.587Z,76.97
2018-03-20T03:53:04.199Z,76.88
2018-03-20T03:55:32.863Z,76.45
2018-03-20T03:58:01.463Z,76.71
2018-03-20T04:00:30.038Z,76.06
2018-03-20T04:02:58.723Z,76.26
2018-03-20T04:05:27.349Z,76.07
2018-03-20T04:07:55.939Z,76.03
2018-03-20T04:10:24.585Z,75.99
2018-03-20T04:12:53.130Z,76.32
2018-03-20T04:15:21.826Z,76.26
2018-03-20T04:17:50.550Z,75.84
2018-03-20T04:20:19.178Z,76.17
2018-03-20T04:22:47.990Z,76.79
2018-03-20T04:25:17.379Z,76.22
2018-03-20T04:27:45.940Z,74.98
2018-03-20T04:30:14.511Z,75.07
2018-03-20T04:32:43.073Z,74.92
2018-03-20T04:35:11.643Z,75.47
2018-03-20T04:37:40.335Z,74.69
2018-03-20T04:40:08.940Z,74.86
2018-03-20T04:42:37.522Z,74.07
2018-03-20T04:45:06.089Z,74.21
2018-03-20T04:47:34.807Z,73.91
2018-03-20T04:50:05.138Z,73.38
2018-03-20T04:52:33.760Z,73.23
2018-03-20T04:55:02.349Z,73.74
2018-03-20T04:57:30.887Z,74.04
2018-03-20T04:59:59.471Z,74.20
2018-03-20T05:02:28.092Z,74.27
2018-03-20T05:04:56.684Z,74.18
2018-03-20T05:07:25.491Z,74.01
2018-03-20T05:09:54.124Z,74.41
2018-03-20T05:12:22.662Z,74.43
2018-03-20T05:14:51.264Z,74.20
2018-03-20T05:17:19.980Z,73.81
2018-03-20T05:23:09.298Z,74.32
2018-03-20T05:25:37.923Z,73.57
2018-03-20T05:28:06.650Z,73.93
2018-03-20T05:30:35.368Z,74.07
2018-03-20T05:33:04.103Z,73.64
2018-03-20T05:35:32.779Z,73.06
2018-03-20T05:38:01.529Z,73.16
2018-03-20T05:40:30.150Z,73.02
2018-03-20T05:42:58.744Z,73.13
2018-03-20T05:45:27.597Z,73.00
2018-03-20T05:51:14.934Z,71.89
2018-03-20T05:53:43.566Z,71.52
2018-03-20T05:56:12.175Z,72.16
2018-03-20T05:58:40.793Z,72.05
2018-03-20T06:01:09.447Z,72.86
2018-03-20T06:03:37.982Z,72.09
2018-03-20T06:06:06.654Z,73.08
2018-03-20T06:08:35.245Z,72.68
2018-03-20T06:11:03.874Z,72.31
2018-03-20T06:13:32.444Z,70.81
2018-03-20T06:16:01.067Z,70.63
2018-03-20T06:18:29.656Z,69.57
2018-03-20T06:20:58.256Z,70.26
2018-03-20T06:23:26.887Z,69.44
2018-03-20T06:25:55.473Z,68.16
2018-03-20T06:28:24.026Z,65.56
2018-03-20T06:30:52.592Z,59.35
2018-03-20T06:33:21.204Z,54.89
2018-03-20T06:35:49.745Z,53.10
2018-03-20T06:38:18.335Z,51.89
2018-03-20T06:40:47.046Z,50.70
2018-03-20T06:43:15.615Z,53.79
2018-03-20T06:45:44.187Z,56.38
2018-03-20T06:48:13.121Z,56.70
2018-03-20T06:50:41.838Z,57.59
2018-03-20T06:53:10.418Z,59.40
2018-03-20T06:55:38.990Z,60.83
2018-03-20T06:58:07.547Z,62.44
2018-03-20T07:00:36.114Z,62.07
2018-03-20T07:03:04.675Z,58.32
2018-03-20T07:05:33.207Z,54.72
2018-03-20T07:08:01.796Z,53.08
2018-03-20T07:10:30.400Z,52.77
2018-03-20T07:12:58.962Z,52.66
2018-03-20T07:15:27.656Z,50.75
2018-03-20T07:17:56.266Z,48.10
2018-03-20T07:20:24.862Z,48.58
2018-03-20T07:22:53.564Z,49.66
2018-03-20T07:25:22.103Z,48.45
2018-03-20T07:27:50.818Z,50.25
2018-03-20T07:30:19.412Z,53.57
2018-03-20T07:32:47.993Z,51.40
2018-03-20T07:35:16.628Z,52.75
2018-03-20T07:37:45.168Z,53.92
2018-03-20T07:40:13.868Z,52.70
2018-03-20T07:42:42.582Z,50.64
2018-03-20T07:45:11.122Z,49.20
2018-03-20T07:47:39.683Z,50.74
2018-03-20T07:50:09.075Z,51.98
2018-03-20T07:52:37.780Z,52.74
2018-03-20T07:55:06.345Z,53.03
2018-03-20T07:57:34.992Z,50.65
2018-03-20T08:00:03.735Z,51.11
2018-03-20T08:02:32.285Z,51.77
2018-03-20T08:05:00.854Z,47.27
2018-03-20T08:07:29.584Z,46.39
2018-03-20T08:09:58.241Z,42.29
2018-03-20T08:12:26.864Z,40.92
2018-03-20T08:14:55.463Z,39.41
2018-03-20T08:17:24.053Z,38.22
2018-03-20T08:19:52.640Z,37.72
2018-03-20T08:22:21.507Z,37.93
2018-03-20T08:24:50.250Z,38.24
2018-03-20T08:27:18.864Z,38.29
2018-03-20T08:29:47.423Z,39.49
2018-03-20T08:32:16.021Z,37.85
2018-03-20T08:34:44.642Z,37.36
2018-03-20T08:37:13.259Z,37.38
2018-03-20T08:39:42.185Z,38.39
2018-03-20T08:42:10.732Z,37.17
2018-03-20T08:44:39.486Z,38.01
2018-03-20T08:47:08.034Z,35.89
2018-03-20T08:49:36.567Z,34.80
2018-03-20T08:52:05.120Z,35.39
2018-03-20T08:54:33.671Z,34.69
2018-03-20T08:57:02.336Z,35.71
2018-03-20T08:59:30.953Z,36.28
2018-03-20T09:02:00.270Z,36.34
2018-03-20T09:04:28.810Z,34.88
2018-03-20T09:06:57.418Z,34.35
2018-03-20T09:09:26.047Z,33.57
2018-03-20T09:14:29.239Z,34.02
2018-03-20T09:16:57.833Z,33.05
2018-03-20T09:19:26.412Z,32.79
2018-03-20T09:21:54.978Z,32.78
2018-03-20T09:24:23.593Z,37.02
2018-03-20T09:26:52.186Z,38.76
2018-03-20T09:29:20.707Z,36.38
2018-03-20T09:31:49.253Z,34.65
2018-03-20T09:34:17.835Z,32.37
2018-03-20T09:36:46.597Z,33.80
2018-03-20T09:39:15.134Z,35.02
2018-03-20T09:41:44.041Z,35.04
2018-03-20T09:44:12.789Z,34.63
2018-03-20T09:46:41.332Z,35.11
2018-03-20T09:49:09.947Z,36.77
2018-03-20T09:51:38.635Z,35.73
2018-03-20T09:54:07.660Z,36.33
2018-03-20T09:56:36.577Z,36.83
2018-03-20T09:59:05.132Z,35.24
2018-03-20T10:01:33.918Z,33.65
2018-03-20T10:04:02.455Z,33.37
2018-03-20T10:06:31.021Z,33.64
2018-03-20T10:08:59.609Z,34.41
2018-03-20T10:11:28.180Z,37.68
2018-03-20T10:13:56.769Z,37.37
2018-03-20T10:16:25.526Z,34.45
2018-03-20T10:18:54.112Z,35.13
2018-03-20T10:21:22.630Z,33.32
2018-03-20T10:23:51.209Z,33.16
2018-03-20T10:26:19.892Z,35.27
2018-03-20T10:28:48.458Z,35.17
2018-03-20T10:31:17.016Z,34.86
2018-03-20T10:33:45.578Z,36.74
2018-03-20T10:36:14.162Z,34.95
2018-03-20T10:38:42.697Z,34.50
2018-03-20T10:41:12.181Z,33.36
2018-03-20T10:43:40.742Z,34.97
2018-03-20T10:46:09.355Z,35.89
2018-03-20T10:48:37.958Z,38.91
2018-03-20T10:51:06.504Z,38.90
2018-03-20T10:53:35.118Z,40.92
2018-03-20T10:56:03.697Z,41.87
2018-03-20T10:58:32.284Z,41.78
2018-03-20T11:01:06.838Z,43.05
2018-03-20T11:03:36.016Z,43.14
2018-03-20T11:06:04.593Z,44.50
2018-03-20T11:08:33.188Z,42.16
2018-03-20T11:11:01.755Z,41.99
2018-03-20T11:13:30.319Z,43.85
2018-03-20T11:15:58.982Z,44.67
2018-03-20T11:18:27.605Z,44.53
2018-03-20T11:20:56.222Z,43.96
2018-03-20T11:23:24.794Z,42.64
2018-03-20T11:25:53.454Z,41.93
2018-03-20T11:28:22.015Z,40.37
2018-03-20T11:30:50.713Z,38.49
2018-03-20T11:33:19.980Z,36.54
2018-03-20T11:35:49.092Z,37.40
2018-03-20T11:38:17.683Z,36.85
2018-03-20T11:40:46.239Z,37.17
2018-03-20T11:43:14.952Z,39.54
2018-03-20T11:45:43.611Z,40.53
2018-03-20T11:48:12.239Z,41.21
2018-03-20T11:50:40.829Z,44.11
2018-03-20T11:53:09.415Z,45.81
2018-03-20T11:55:37.961Z,45.85
2018-03-20T11:58:06.566Z,45.57
2018-03-20T12:00:35.275Z,45.87
2018-03-20T12:03:03.894Z,45.74
2018-03-20T12:05:32.518Z,45.39
2018-03-20T12:08:13.081Z,44.55
2018-03-20T12:10:41.637Z,39.98
2018-03-20T12:13:10.231Z,40.03
2018-03-20T12:15:38.776Z,42.45
2018-03-20T12:18:07.375Z,45.32
2018-03-20T12:20:37.088Z,46.26
2018-03-20T12:23:05.728Z,44.45
2018-03-20T12:25:34.299Z,44.83
2018-03-20T12:28:02.896Z,46.60
2018-03-20T12:30:31.428Z,47.78
2018-03-20T12:33:00.110Z,46.41
2018-03-20T12:35:28.679Z,46.20
2018-03-20T12:37:57.442Z,46.83
2018-03-20T12:40:26.171Z,46.17
2018-03-20T12:42:54.779Z,45.59
2018-03-20T12:45:23.307Z,44.76
2018-03-20T12:47:51.879Z,44.75
2018-03-20T12:50:20.405Z,44.19
2018-03-20T12:52:49.762Z,43.43
2018-03-20T12:55:18.339Z,42.84
2018-03-20T12:57:46.976Z,43.17
2018-03-20T13:00:16.278Z,44.36
2018-03-20T13:02:44.805Z,45.11
2018-03-20T13:05:13.382Z,44.75
2018-03-20T13:07:41.951Z,44.79
2018-03-20T13:10:10.498Z,43.88
2018-03-20T13:12:39.055Z,43.82
2018-03-20T13:15:07.650Z,44.10
2018-03-20T13:17:36.290Z,44.87
2018-03-20T13:20:04.913Z,45.95
2018-03-20T13:22:33.633Z,47.32
2018-03-20T13:25:02.171Z,47.10
2018-03-20T13:27:30.788Z,45.84
2018-03-20T13:29:59.328Z,44.98
2018-03-20T13:32:28.030Z,44.99
2018-03-20T13:34:56.667Z,43.98
2018-03-20T13:37:26.166Z,43.51
2018-03-20T13:39:54.733Z,42.44
2018-03-20T13:42:23.351Z,43.04
2018-03-20T13:44:51.929Z,43.02
2018-03-20T13:47:20.550Z,42.30
2018-03-20T13:49:49.261Z,42.01
2018-03-20T13:52:17.897Z,40.15
2018-03-20T13:54:46.545Z,38.55
2018-03-20T13:57:15.108Z,37.71
2018-03-20T13:59:43.698Z,37.07
2018-03-20T14:02:12.231Z,36.96
2018-03-20T14:04:40.900Z,36.66
2018-03-20T14:07:09.426Z,33.05
2018-03-20T14:09:38.040Z,32.39
2018-03-20T14:12:06.595Z,30.57
2018-03-20T14:14:35.111Z,29.36
2018-03-20T14:17:03.735Z,29.20
2018-03-20T14:19:32.291Z,29.31
2018-03-20T14:22:00.848Z,29.77
2018-03-20T14:24:29.478Z,30.10
2018-03-20T14:26:58.101Z,29.87
2018-03-20T14:29:27.575Z,30.09
2018-03-20T14:31:56.140Z,30.77
2018-03-20T14:34:24.755Z,30.60
2018-03-20T14:36:53.292Z,31.47
2018-03-20T14:39:22.185Z,31.30
2018-03-20T14:41:50.728Z,30.41
2018-03-20T14:44:19.267Z,31.10
2018-03-20T14:46:47.862Z,33.59
2018-03-20T14:49:16.431Z,34.52
2018-03-20T14:51:45.023Z,34.03
2018-03-20T14:54:13.692Z,33.31
2018-03-20T14:56:42.273Z,33.17
2018-03-20T14:59:11.065Z,33.33
2018-03-20T15:01:39.605Z,33.84
2018-03-20T15:04:08.184Z,34.41
2018-03-20T15:06:36.842Z,34.27
2018-03-20T15:09:05.442Z,34.66
2018-03-20T15:11:34.193Z,33.51
2018-03-20T15:14:02.789Z,34.03
2018-03-20T15:16:32.099Z,33.72
2018-03-20T15:19:01.652Z,33.06
2018-03-20T15:21:30.198Z,32.60
2018-03-20T15:24:02.718Z,33.54
2018-03-20T15:26:32.650Z,32.77
2018-03-20T15:29:01.298Z,32.21
2018-03-20T15:31:29.982Z,31.59
2018-03-20T15:33:58.604Z,31.21
2018-03-20T15:36:27.226Z,31.18
2018-03-20T15:38:55.770Z,31.60
2018-03-20T15:41:24.474Z,32.57
2018-03-20T15:43:53.090Z,33.31
2018-03-20T15:46:21.710Z,33.33
2018-03-20T15:48:50.298Z,32.55
2018-03-20T15:51:19.054Z,32.79
2018-03-20T15:53:47.645Z,32.52
2018-03-20T15:56:16.296Z,33.33
2018-03-20T15:58:44.824Z,34.65
2018-03-20T16:01:14.039Z,37.04
2018-03-20T16:03:42.573Z,35.83
2018-03-20T16:06:11.291Z,34.29
2018-03-20T16:08:39.900Z,33.65
2018-03-20T16:11:08.498Z,31.25
2018-03-20T16:13:37.054Z,31.49
2018-03-20T16:16:05.664Z,32.90
2018-03-20T16:18:34.391Z,34.10
2018-03-20T16:21:03.115Z,33.33
2018-03-20T16:23:31.713Z,33.55
2018-03-20T16:26:00.416Z,34.07
2018-03-20T16:28:29.081Z,34.90
2018-03-20T16:30:58.282Z,35.91
2018-03-20T16:33:26.896Z,36.22
2018-03-20T16:35:55.463Z,35.60
2018-03-20T16:38:24.072Z,35.75
2018-03-20T16:40:52.660Z,35.97
2018-03-20T16:43:21.353Z,36.11
2018-03-20T16:45:50.135Z,37.01
2018-03-20T16:48:18.836Z,37.24
2018-03-20T16:50:47.396Z,37.63
2018-03-20T16:53:15.985Z,37.45
2018-03-20T16:55:44.585Z,36.98
2018-03-20T16:58:13.156Z,38.01
2018-03-20T17:00:41.828Z,38.28
2018-03-20T17:03:10.619Z,38.41
2018-03-20T17:05:39.307Z,41.49
2018-03-20T17:08:08.126Z,39.01
2018-03-20T17:10:36.858Z,40.00
2018-03-20T17:13:05.465Z,39.97
2018-03-20T17:15:34.095Z,40.89
2018-03-20T17:18:02.685Z,41.47
2018-03-20T17:20:31.295Z,43.99
2018-03-20T17:22:59.959Z,45.28
2018-03-20T17:25:28.557Z,45.35
2018-03-20T17:27:57.109Z,44.81
2018-03-20T17:30:25.708Z,45.09
2018-03-20T17:32:54.443Z,45.37
2018-03-20T17:35:23.106Z,46.14
2018-03-20T17:37:51.700Z,42.88
2018-03-20T17:40:20.426Z,43.86
2018-03-20T17:42:48.962Z,43.49
2018-03-20T17:45:17.535Z,43.86
2018-03-20T17:47:46.172Z,42.59
2018-03-20T17:50:14.795Z,47.30
2018-03-20T17:52:43.717Z,45.71
2018-03-20T17:55:12.341Z,44.39
2018-03-20T17:57:41.013Z,44.23
2018-03-20T18:00:09.693Z,41.91
2018-03-20T18:02:38.406Z,46.83
2018-03-20T18:05:06.981Z,37.63
2018-03-20T18:07:35.526Z,40.60
2018-03-20T18:10:04.120Z,39.61
2018-03-20T18:12:32.702Z,40.94
2018-03-20T18:15:01.744Z,43.01
2018-03-20T18:17:30.342Z,44.35
2018-03-20T18:19:58.888Z,44.72
2018-03-20T18:22:27.573Z,46.34
2018-03-20T18:24:56.297Z,49.06
2018-03-20T18:27:24.883Z,51.34
2018-03-20T18:29:53.424Z,50.63
2018-03-20T18:32:21.971Z,51.52
2018-03-20T18:34:50.579Z,50.03
2018-03-20T18:37:19.204Z,52.19
2018-03-20T18:39:47.925Z,53.27
2018-03-20T18:42:16.761Z,51.49
2018-03-20T18:44:45.364Z,50.26
2018-03-20T18:47:13.957Z,52.02
2018-03-20T18:49:43.238Z,55.49
2018-03-20T18:52:12.942Z,55.93
2018-03-20T18:54:41.531Z,56.11
2018-03-20T18:57:10.152Z,54.70
2018-03-20T18:59:38.704Z,56.15
2018-03-20T19:02:07.326Z,57.04
2018-03-20T19:04:36.047Z,57.49
2018-03-20T19:07:04.621Z,58.68
2018-03-20T19:09:33.230Z,59.38
2018-03-20T19:12:01.771Z,59.43
2018-03-20T19:14:30.460Z,60.07
2018-03-20T19:16:59.036Z,59.63
2018-03-20T19:19:27.614Z,61.40
2018-03-20T19:21:56.195Z,59.91
2018-03-20T19:24:24.919Z,60.25
2018-03-20T19:26:54.189Z,59.30
2018-03-20T19:29:22.794Z,59.55
2018-03-20T19:31:51.386Z,59.82
2018-03-20T19:34:19.952Z,59.98
2018-03-20T19:36:48.703Z,60.31
2018-03-20T19:39:17.651Z,60.52
2018-03-20T19:41:46.375Z,59.01
2018-03-20T19:44:14.977Z,59.59
2018-03-20T19:46:43.559Z,59.80
2018-03-20T19:49:12.098Z,59.95
2018-03-20T19:51:40.666Z,60.72
2018-03-20T19:54:09.281Z,60.12
2018-03-20T19:56:37.856Z,57.76
2018-03-20T19:59:06.490Z,58.78
2018-03-20T20:01:35.145Z,58.73
2018-03-20T20:04:03.919Z,57.68
2018-03-20T20:06:32.731Z,54.83
2018-03-20T20:09:01.302Z,55.32
2018-03-20T20:11:29.928Z,58.95
2018-03-20T20:13:58.506Z,59.79
2018-03-20T20:16:27.170Z,59.63
2018-03-20T20:18:55.901Z,58.12
2018-03-20T20:21:24.618Z,58.97
2018-03-20T20:23:53.230Z,57.87
2018-03-20T20:26:21.779Z,56.86
2018-03-20T20:28:50.385Z,56.12
2018-03-20T20:31:19.480Z,57.73
2018-03-20T20:33:48.082Z,58.17
2018-03-20T20:36:16.652Z,56.82
2018-03-20T20:38:45.246Z,57.12
2018-03-20T20:41:13.912Z,57.53
2018-03-20T20:43:42.421Z,58.47
2018-03-20T20:46:11.019Z,57.77
2018-03-20T20:48:39.587Z,57.14
2018-03-20T20:51:08.178Z,57.51
2018-03-20T20:53:37.723Z,58.68
2018-03-20T20:56:06.395Z,57.62
2018-03-20T20:58:34.975Z,55.88
2018-03-20T21:01:03.654Z,57.56
2018-03-20T21:03:32.295Z,58.63
2018-03-20T21:06:01.114Z,57.94
2018-03-20T21:08:30.058Z,58.16
2018-03-20T21:10:58.767Z,59.61
2018-03-20T21:13:27.378Z,58.35
2018-03-20T21:15:55.938Z,58.43
2018-03-20T21:18:24.571Z,56.43
2018-03-20T21:20:53.298Z,57.83
2018-03-20T21:23:21.900Z,57.59
2018-03-20T21:25:50.588Z,57.62
2018-03-20T21:28:19.310Z,58.24
2018-03-20T21:30:47.972Z,57.83
2018-03-20T21:33:16.617Z,57.41
2018-03-20T21:35:45.329Z,54.47
2018-03-20T21:38:14.024Z,55.00
2018-03-20T21:40:43.394Z,54.23
2018-03-20T21:43:12.200Z,55.04
2018-03-20T21:45:40.897Z,55.70
2018-03-20T21:48:09.641Z,56.27
2018-03-20T21:50:38.275Z,55.17
2018-03-20T21:53:06.924Z,57.03
2018-03-20T21:55:35.533Z,58.30
2018-03-20T21:58:04.228Z,59.94
2018-03-20T22:00:32.921Z,59.27
2018-03-20T22:03:01.675Z,59.11
2018-03-20T22:05:30.319Z,58.52
2018-03-20T22:07:59.216Z,56.04
2018-03-20T22:10:27.854Z,55.96
2018-03-20T22:12:56.415Z,54.63
2018-03-20T22:15:24.943Z,54.63
2018-03-20T22:17:54.102Z,55.49
2018-03-20T22:20:22.732Z,55.02
2018-03-20T22:22:51.360Z,55.27
2018-03-20T22:25:20.068Z,53.65
2018-03-20T22:27:48.830Z,54.08
2018-03-20T22:30:17.437Z,54.78
2018-03-20T22:32:46.137Z,55.22
2018-03-20T22:35:14.856Z,55.12
2018-03-20T22:37:43.486Z,54.88
2018-03-20T22:40:12.299Z,54.71
2018-03-20T22:42:41.022Z,55.11
2018-03-20T22:45:09.623Z,56.06
2018-03-20T22:47:38.167Z,55.82
2018-03-20T22:50:07.205Z,55.81
2018-03-20T22:52:35.816Z,56.05
2018-03-20T22:55:04.514Z,56.38
2018-03-20T22:57:33.151Z,57.25
2018-03-20T23:00:01.780Z,57.10
2018-03-20T23:02:30.494Z,57.35
2018-03-20T23:04:59.215Z,57.00
2018-03-20T23:07:27.936Z,56.92
2018-03-20T23:09:56.660Z,56.49
2018-03-20T23:12:25.381Z,56.73
2018-03-20T23:14:53.949Z,56.49
2018-03-20T23:17:22.535Z,56.43
2018-03-20T23:19:51.145Z,56.36
2018-03-20T23:22:19.800Z,56.37
2018-03-20T23:24:49.094Z,56.56
2018-03-20T23:27:17.814Z,56.56
2018-03-20T23:29:46.639Z,56.64
2018-03-20T23:32:15.361Z,56.43
2018-03-20T23:34:43.978Z,56.76
2018-03-20T23:37:12.622Z,56.64
2018-03-20T23:39:41.425Z,56.99
2018-03-20T23:42:10.144Z,57.18
2018-03-20T23:44:38.965Z,57.25
2018-03-20T23:47:07.589Z,58.11
2018-03-20T23:49:37.917Z,57.60
2018-03-20T23:52:06.581Z,57.32
2018-03-20T23:54:35.260Z,58.95
2018-03-20T23:57:03.981Z,58.75
2018-03-20T23:59:32.601Z,60.06
